createdAt,value
2018-06-15T00:02:23.774Z,82.50
2018-06-15T00:04:58.002Z,82.70
2018-06-15T00:07:32.568Z,82.70
2018-06-15T00:10:07.302Z,82.60
2018-06-15T00:12:42.369Z,83.50
2018-06-15T00:15:16.870Z,82.70
2018-06-15T00:17:51.720Z,82.80
2018-06-15T00:20:26.342Z,82.50
2018-06-15T00:23:00.832Z,82.50
2018-06-15T00:25:35.864Z,82.50
2018-06-15T00:28:10.212Z,83.00
2018-06-15T00:30:44.953Z,82.30
2018-06-15T00:33:19.947Z,82.30
2018-06-15T00:35:54.464Z,82.20
2018-06-15T00:38:29.083Z,81.80
2018-06-15T00:41:03.773Z,81.30
2018-06-15T00:43:38.373Z,81.20
2018-06-15T00:46:13.180Z,80.40
2018-06-15T00:48:47.709Z,80.80
2018-06-15T00:51:22.390Z,80.50
2018-06-15T00:53:57.049Z,80.50
2018-06-15T00:56:31.789Z,79.80
2018-06-15T00:59:06.444Z,79.00
2018-06-15T01:01:41.037Z,78.60
2018-06-15T01:04:15.719Z,78.70
2018-06-15T01:06:50.330Z,78.70
2018-06-15T01:09:25.165Z,79.40
2018-06-15T01:11:59.721Z,78.80
2018-06-15T01:14:34.456Z,78.60
2018-06-15T01:17:09.074Z,78.40
2018-06-15T01:19:43.713Z,78.00
2018-06-15T01:22:18.414Z,77.20
2018-06-15T01:24:52.984Z,76.90
2018-06-15T01:27:27.584Z,76.90
2018-06-15T01:30:02.306Z,77.10
2018-06-15T01:32:36.963Z,77.10
2018-06-15T01:35:11.897Z,76.50
2018-06-15T01:37:46.520Z,76.50
2018-06-15T01:40:21.262Z,76.50
2018-06-15T01:42:55.896Z,76.30
2018-06-15T01:45:30.529Z,76.20
2018-06-15T01:48:05.423Z,76.10
2018-06-15T01:50:40.043Z,76.30
2018-06-15T01:53:14.502Z,76.30
2018-06-15T01:55:49.149Z,75.50
2018-06-15T01:58:24.326Z,75.50
2018-06-15T02:00:58.727Z,75.50
2018-06-15T02:03:33.429Z,75.60
2018-06-15T02:06:08.026Z,75.50
2018-06-15T02:08:42.688Z,76.00
2018-06-15T02:11:17.546Z,75.70
2018-06-15T02:13:52.068Z,75.90
2018-06-15T02:16:26.910Z,75.70
2018-06-15T02:19:01.736Z,76.40
2018-06-15T02:21:36.180Z,75.60
2018-06-15T02:24:11.354Z,75.80
2018-06-15T02:26:45.417Z,76.00
2018-06-15T02:29:20.256Z,76.20
2018-06-15T02:31:55.177Z,76.20
2018-06-15T02:34:29.589Z,76.40
2018-06-15T02:37:04.514Z,76.30
2018-06-15T02:39:39.086Z,76.20
2018-06-15T02:42:14.021Z,76.50
2018-06-15T02:44:48.418Z,76.80
2018-06-15T02:47:23.430Z,76.80
2018-06-15T02:49:58.073Z,76.90
2018-06-15T02:52:33.223Z,76.90
2018-06-15T02:55:07.358Z,76.40
2018-06-15T02:57:41.934Z,76.20
2018-06-15T03:00:16.673Z,76.20
2018-06-15T03:02:51.391Z,76.20
2018-06-15T03:05:25.961Z,76.20
2018-06-15T03:10:35.038Z,76.50
2018-06-15T03:13:09.780Z,76.90
2018-06-15T03:15:44.562Z,77.10
2018-06-15T03:18:19.366Z,77.30
2018-06-15T03:20:54.374Z,77.20
2018-06-15T03:23:29.245Z,77.00
2018-06-15T03:26:03.894Z,76.90
2018-06-15T03:28:38.275Z,77.10
2018-06-15T03:31:12.995Z,77.20
2018-06-15T03:33:47.489Z,77.50
2018-06-15T03:36:22.182Z,77.80
2018-06-15T03:38:56.758Z,77.80
2018-06-15T03:41:31.537Z,77.90
2018-06-15T03:44:06.139Z,78.00
2018-06-15T03:46:40.781Z,78.10
2018-06-15T03:49:15.475Z,78.00
2018-06-15T03:51:50.097Z,78.40
2018-06-15T03:54:24.777Z,78.40
2018-06-15T03:56:59.556Z,78.70
2018-06-15T03:59:34.079Z,78.70
2018-06-15T04:02:08.881Z,78.70
2018-06-15T04:04:43.309Z,78.80
2018-06-15T04:07:17.996Z,78.90
2018-06-15T04:09:52.731Z,79.20
2018-06-15T04:12:27.393Z,79.00
2018-06-15T04:15:02.111Z,78.50
2018-06-15T04:17:36.940Z,78.30
2018-06-15T04:20:12.718Z,78.50
2018-06-15T04:22:47.385Z,78.70
2018-06-15T04:25:22.415Z,78.30
2018-06-15T04:30:32.045Z,78.00
2018-06-15T04:33:07.261Z,78.20
2018-06-15T04:35:41.936Z,77.90
2018-06-15T04:38:17.425Z,77.90
2018-06-15T04:43:26.862Z,77.70
2018-06-15T04:46:01.513Z,77.40
2018-06-15T04:48:36.195Z,77.30
2018-06-15T04:51:10.822Z,77.20
2018-06-15T04:53:45.440Z,77.10
2018-06-15T04:56:20.202Z,77.20
2018-06-15T04:58:54.802Z,77.70
2018-06-15T05:01:29.542Z,77.40
2018-06-15T05:04:04.173Z,76.80
2018-06-15T05:06:38.764Z,77.00
2018-06-15T05:09:13.803Z,76.80
2018-06-15T05:11:48.156Z,75.80
2018-06-15T05:14:22.872Z,75.30
2018-06-15T05:16:57.491Z,74.50
2018-06-15T05:19:32.997Z,74.70
2018-06-15T05:22:07.854Z,74.30
2018-06-15T05:24:42.401Z,73.10
2018-06-15T05:27:17.048Z,73.50
2018-06-15T05:29:51.722Z,71.50
2018-06-15T05:32:26.399Z,69.50
2018-06-15T05:35:00.969Z,69.00
2018-06-15T05:37:35.688Z,67.60
2018-06-15T05:40:10.547Z,64.00
2018-06-15T05:42:45.470Z,60.50
2018-06-15T05:45:19.918Z,59.10
2018-06-15T05:47:55.596Z,56.60
2018-06-15T05:50:29.871Z,54.60
2018-06-15T05:53:04.403Z,53.90
2018-06-15T05:55:38.967Z,53.20
2018-06-15T05:58:13.592Z,53.50
2018-06-15T06:00:48.494Z,51.00
2018-06-15T06:03:23.107Z,50.60
2018-06-15T06:05:57.838Z,48.10
2018-06-15T06:08:32.434Z,47.70
2018-06-15T06:11:07.032Z,47.80
2018-06-15T06:13:41.400Z,46.30
2018-06-15T06:16:16.308Z,44.80
2018-06-15T06:21:25.037Z,44.30
2018-06-15T06:23:59.556Z,38.70
2018-06-15T06:26:34.174Z,40.50
2018-06-15T06:29:08.877Z,40.90
2018-06-15T06:31:43.485Z,38.20
2018-06-15T06:34:17.991Z,37.70
2018-06-15T06:36:53.069Z,39.10
2018-06-15T06:39:27.482Z,37.90
2018-06-15T06:42:02.036Z,37.00
2018-06-15T06:44:36.811Z,40.60
2018-06-15T06:47:11.334Z,38.50
2018-06-15T06:49:46.090Z,38.00
2018-06-15T06:52:20.510Z,38.50
2018-06-15T06:54:55.003Z,36.20
2018-06-15T06:57:29.453Z,34.50
2018-06-15T07:00:04.456Z,36.00
2018-06-15T07:02:38.926Z,33.70
2018-06-15T07:05:13.745Z,34.80
2018-06-15T07:07:48.101Z,35.80
2018-06-15T07:10:23.258Z,36.20
2018-06-15T07:12:58.833Z,33.30
2018-06-15T07:15:32.999Z,36.10
2018-06-15T07:18:07.587Z,35.60
2018-06-15T07:20:42.660Z,34.80
2018-06-15T07:23:17.538Z,35.20
2018-06-15T07:25:51.746Z,37.30
2018-06-15T07:28:27.173Z,38.90
2018-06-15T07:31:02.122Z,40.50
2018-06-15T07:33:38.018Z,38.70
2018-06-15T07:36:13.390Z,41.70
2018-06-15T07:38:48.486Z,44.00
2018-06-15T07:41:23.060Z,44.40
2018-06-15T07:43:58.808Z,45.20
2018-06-15T07:46:34.030Z,44.60
2018-06-15T07:49:09.269Z,47.50
2018-06-15T07:51:43.941Z,49.40
2018-06-15T07:54:18.379Z,49.50
2018-06-15T07:56:53.766Z,47.30
2018-06-15T07:59:28.642Z,47.00
2018-06-15T08:02:03.650Z,47.10
2018-06-15T08:04:38.252Z,47.80
2018-06-15T08:07:12.879Z,48.60
2018-06-15T08:09:47.789Z,48.60
2018-06-15T08:12:22.370Z,47.40
2018-06-15T08:14:56.955Z,47.40
2018-06-15T08:17:31.651Z,47.10
2018-06-15T08:20:06.260Z,46.70
2018-06-15T08:25:16.440Z,46.00
2018-06-15T08:27:51.271Z,44.10
2018-06-15T08:30:26.486Z,42.10
2018-06-15T08:33:00.787Z,42.10
2018-06-15T08:35:35.488Z,41.70
2018-06-15T08:38:10.103Z,41.70
2018-06-15T08:40:44.717Z,40.00
2018-06-15T08:43:20.219Z,40.00
2018-06-15T08:45:54.819Z,41.10
2018-06-15T08:48:29.668Z,38.30
2018-06-15T08:51:04.329Z,39.50
2018-06-15T08:53:39.369Z,39.00
2018-06-15T08:56:14.524Z,40.30
2018-06-15T08:58:49.002Z,36.20
2018-06-15T09:01:23.555Z,38.10
2018-06-15T09:03:58.291Z,37.10
2018-06-15T09:06:33.341Z,36.50
2018-06-15T09:09:08.744Z,35.00
2018-06-15T09:11:43.255Z,34.40
2018-06-15T09:14:17.752Z,34.40
2018-06-15T09:16:52.552Z,35.40
2018-06-15T09:19:27.274Z,34.50
2018-06-15T09:22:02.246Z,33.40
2018-06-15T09:24:36.850Z,35.70
2018-06-15T09:29:53.192Z,33.90
2018-06-15T09:32:27.839Z,34.50
2018-06-15T09:35:02.433Z,32.90
2018-06-15T09:37:37.538Z,33.30
2018-06-15T09:40:11.798Z,32.60
2018-06-15T09:42:46.675Z,32.90
2018-06-15T09:45:21.272Z,34.60
2018-06-15T09:47:56.014Z,34.20
2018-06-15T09:53:05.894Z,35.30
2018-06-15T09:55:40.035Z,38.90
2018-06-15T09:58:14.662Z,35.90
2018-06-15T10:00:51.588Z,38.50
2018-06-15T10:03:25.913Z,37.50
2018-06-15T10:08:35.791Z,37.50
2018-06-15T10:11:10.844Z,36.50
2018-06-15T10:13:45.875Z,38.60
2018-06-15T10:16:20.125Z,38.70
2018-06-15T10:18:54.756Z,35.00
2018-06-15T10:21:29.592Z,36.50
2018-06-15T10:24:04.230Z,35.40
2018-06-15T10:26:38.868Z,36.60
2018-06-15T10:29:13.652Z,39.90
2018-06-15T10:31:48.218Z,39.10
2018-06-15T10:34:23.164Z,37.20
2018-06-15T10:36:57.544Z,35.40
2018-06-15T10:39:32.157Z,36.60
2018-06-15T10:42:07.780Z,39.10
2018-06-15T10:44:42.616Z,40.60
2018-06-15T10:47:17.455Z,41.30
2018-06-15T10:49:51.916Z,37.10
2018-06-15T10:52:26.602Z,38.80
2018-06-15T10:55:01.276Z,38.80
2018-06-15T10:57:35.815Z,39.40
2018-06-15T11:00:10.718Z,41.90
2018-06-15T11:02:45.253Z,40.40
2018-06-15T11:05:19.985Z,45.00
2018-06-15T11:07:54.744Z,40.80
2018-06-15T11:10:29.350Z,39.20
2018-06-15T11:13:04.262Z,38.80
2018-06-15T11:15:38.878Z,40.10
2018-06-15T11:18:13.877Z,40.40
2018-06-15T11:20:49.057Z,41.30
2018-06-15T11:23:24.577Z,40.20
2018-06-15T11:25:59.532Z,41.50
2018-06-15T11:28:34.029Z,43.20
2018-06-15T11:31:08.734Z,43.00
2018-06-15T11:33:43.443Z,41.40
2018-06-15T11:36:18.152Z,40.90
2018-06-15T11:38:52.782Z,41.90
2018-06-15T11:41:27.332Z,43.00
2018-06-15T11:44:01.998Z,41.20
2018-06-15T11:46:36.822Z,42.20
2018-06-15T11:49:11.398Z,42.00
2018-06-15T11:51:45.987Z,42.20
2018-06-15T11:54:20.885Z,42.10
2018-06-15T11:56:55.406Z,42.70
2018-06-15T11:59:29.927Z,43.40
2018-06-15T12:02:04.861Z,44.40
2018-06-15T12:04:39.511Z,44.40
2018-06-15T12:07:14.069Z,43.20
2018-06-15T12:09:48.684Z,43.50
2018-06-15T12:12:23.456Z,44.90
2018-06-15T12:14:58.136Z,45.80
2018-06-15T12:17:32.513Z,45.20
2018-06-15T12:20:07.245Z,45.10
2018-06-15T12:22:41.966Z,43.70
2018-06-15T12:25:16.669Z,44.50
2018-06-15T12:27:51.266Z,44.70
2018-06-15T12:30:25.905Z,45.80
2018-06-15T12:33:00.415Z,44.80
2018-06-15T12:35:35.137Z,43.90
2018-06-15T12:38:09.755Z,45.10
2018-06-15T12:40:44.434Z,45.80
2018-06-15T12:43:19.096Z,45.20
2018-06-15T12:45:54.152Z,44.00
2018-06-15T12:48:28.390Z,44.50
2018-06-15T12:51:03.151Z,45.70
2018-06-15T12:53:37.769Z,43.80
2018-06-15T12:56:12.453Z,43.70
2018-06-15T12:58:47.168Z,43.30
2018-06-15T13:01:21.902Z,44.60
2018-06-15T13:03:56.502Z,44.80
2018-06-15T13:06:31.145Z,43.90
2018-06-15T13:09:08.053Z,44.50
2018-06-15T13:11:42.458Z,43.60
2018-06-15T13:14:16.990Z,43.60
2018-06-15T13:16:51.613Z,46.30
2018-06-15T13:22:00.913Z,46.20
2018-06-15T13:24:35.713Z,47.60
2018-06-15T13:27:10.261Z,46.90
2018-06-15T13:32:26.302Z,46.20
2018-06-15T13:35:01.314Z,46.90
2018-06-15T13:37:36.022Z,46.00
2018-06-15T13:40:10.703Z,46.60
2018-06-15T13:42:45.625Z,48.00
2018-06-15T13:45:20.070Z,47.60
2018-06-15T13:47:54.717Z,47.70
2018-06-15T13:50:29.465Z,46.40
2018-06-15T13:53:04.337Z,46.80
2018-06-15T13:55:39.010Z,47.60
2018-06-15T13:58:14.071Z,46.90
2018-06-15T14:00:48.440Z,46.00
2018-06-15T14:03:22.834Z,46.90
2018-06-15T14:05:57.380Z,46.20
2018-06-15T14:08:31.997Z,46.10
2018-06-15T14:11:06.689Z,47.20
2018-06-15T14:13:41.264Z,46.10
2018-06-15T14:16:15.966Z,46.40
2018-06-15T14:18:50.604Z,46.70
2018-06-15T14:21:25.178Z,48.40
2018-06-15T14:23:59.737Z,47.60
2018-06-15T14:26:34.519Z,46.50
2018-06-15T14:31:45.454Z,45.80
2018-06-15T14:34:20.553Z,45.30
2018-06-15T14:36:55.218Z,46.10
2018-06-15T14:39:29.829Z,46.80
2018-06-15T14:42:05.144Z,46.80
2018-06-15T14:44:40.278Z,45.80
2018-06-15T14:47:14.814Z,46.20
2018-06-15T14:49:49.512Z,47.60
2018-06-15T14:52:24.174Z,47.40
2018-06-15T14:54:59.167Z,47.30
2018-06-15T14:57:33.538Z,47.70
2018-06-15T15:00:08.001Z,47.30
2018-06-15T15:02:42.804Z,47.80
2018-06-15T15:05:17.586Z,48.20
2018-06-15T15:07:52.366Z,48.30
2018-06-15T15:10:27.085Z,48.50
2018-06-15T15:13:02.307Z,47.40
2018-06-15T15:15:36.384Z,47.30
2018-06-15T15:18:11.184Z,47.10
2018-06-15T15:20:45.897Z,47.50
2018-06-15T15:23:20.686Z,47.40
2018-06-15T15:25:55.474Z,47.20
2018-06-15T15:28:30.192Z,47.30
2018-06-15T15:31:04.903Z,47.70
2018-06-15T15:33:39.437Z,47.60
2018-06-15T15:36:14.101Z,48.30
2018-06-15T15:38:48.729Z,47.70
2018-06-15T15:41:23.589Z,48.00
2018-06-15T15:43:58.315Z,48.70
2018-06-15T15:46:32.986Z,48.00
2018-06-15T15:49:07.799Z,47.70
2018-06-15T15:51:42.421Z,47.60
2018-06-15T15:54:17.142Z,46.80
2018-06-15T15:56:51.751Z,46.90
2018-06-15T15:59:26.286Z,46.40
2018-06-15T16:02:00.864Z,47.30
2018-06-15T16:04:35.974Z,47.20
2018-06-15T16:07:10.267Z,47.70
2018-06-15T16:09:44.968Z,48.70
2018-06-15T16:12:20.253Z,47.70
2018-06-15T16:14:55.366Z,47.90
2018-06-15T16:17:30.061Z,48.30
2018-06-15T16:20:05.401Z,48.20
2018-06-15T16:22:40.486Z,48.10
2018-06-15T16:25:15.933Z,47.90
2018-06-15T16:27:50.784Z,48.30
2018-06-15T16:30:25.598Z,48.00
2018-06-15T16:33:00.370Z,47.20
2018-06-15T16:35:35.060Z,47.40
2018-06-15T16:38:10.082Z,48.10
2018-06-15T16:40:44.433Z,49.00
2018-06-15T16:43:19.108Z,49.00
2018-06-15T16:45:53.717Z,47.70
2018-06-15T16:48:28.494Z,48.10
2018-06-15T16:51:03.085Z,49.00
2018-06-15T16:53:38.811Z,48.10
2018-06-15T16:56:13.578Z,49.00
2018-06-15T16:58:48.293Z,49.40
2018-06-15T17:01:24.157Z,48.90
2018-06-15T17:03:58.614Z,48.50
2018-06-15T17:09:09.574Z,48.10
2018-06-15T17:11:44.677Z,48.60
2018-06-15T17:14:19.393Z,48.00
2018-06-15T17:16:54.091Z,47.90
2018-06-15T17:19:29.675Z,48.00
2018-06-15T17:22:04.253Z,48.40
2018-06-15T17:24:39.986Z,48.80
2018-06-15T17:27:14.639Z,48.20
2018-06-15T17:29:49.252Z,48.30
2018-06-15T17:32:23.962Z,48.20
2018-06-15T17:34:58.950Z,48.70
2018-06-15T17:37:33.429Z,48.30
2018-06-15T17:40:08.394Z,48.40
2018-06-15T17:42:43.021Z,48.70
2018-06-15T17:45:17.753Z,48.60
2018-06-15T17:47:52.453Z,48.60
2018-06-15T17:50:27.089Z,48.70
2018-06-15T17:53:01.687Z,48.20
2018-06-15T17:55:36.513Z,48.50
2018-06-15T17:58:10.925Z,48.60
2018-06-15T18:00:46.229Z,49.00
2018-06-15T18:03:21.570Z,49.10
2018-06-15T18:05:56.048Z,49.20
2018-06-15T18:08:30.587Z,49.50
2018-06-15T18:11:05.527Z,50.40
2018-06-15T18:13:39.782Z,48.70
2018-06-15T18:18:49.170Z,48.70
2018-06-15T18:21:24.136Z,49.10
2018-06-15T18:23:58.648Z,49.60
2018-06-15T18:26:33.523Z,49.90
2018-06-15T18:29:07.911Z,49.60
2018-06-15T18:31:42.968Z,49.60
2018-06-15T18:34:18.030Z,49.80
2018-06-15T18:36:52.945Z,50.40
2018-06-15T18:39:27.040Z,50.30
2018-06-15T18:42:01.828Z,50.60
2018-06-15T18:44:36.435Z,50.90
2018-06-15T18:47:11.513Z,51.80
2018-06-15T18:49:45.840Z,51.30
2018-06-15T18:52:20.490Z,52.30
2018-06-15T18:54:55.145Z,53.50
2018-06-15T18:57:30.120Z,52.70
2018-06-15T19:00:04.956Z,53.80
2018-06-15T19:02:40.309Z,54.40
2018-06-15T19:05:15.139Z,55.00
2018-06-15T19:07:50.084Z,54.90
2018-06-15T19:10:24.538Z,55.20
2018-06-15T19:12:59.096Z,55.60
2018-06-15T19:15:33.998Z,55.90
2018-06-15T19:18:08.672Z,56.50
2018-06-15T19:20:43.497Z,57.30
2018-06-15T19:23:18.546Z,57.60
2018-06-15T19:25:53.086Z,58.00
2018-06-15T19:28:27.930Z,58.50
2018-06-15T19:31:02.525Z,59.00
2018-06-15T19:33:37.332Z,59.60
2018-06-15T19:36:11.752Z,60.20
2018-06-15T19:38:46.578Z,60.20
2018-06-15T19:41:21.300Z,60.60
2018-06-15T19:43:55.984Z,61.00
2018-06-15T19:46:30.552Z,61.30
2018-06-15T19:49:05.332Z,61.80
2018-06-15T19:51:40.111Z,62.10
2018-06-15T19:54:14.721Z,62.60
2018-06-15T19:56:49.581Z,62.90
2018-06-15T19:59:24.302Z,63.30
2018-06-15T20:01:58.862Z,63.60
2018-06-15T20:04:34.017Z,64.10
2018-06-15T20:07:08.556Z,64.50
2018-06-15T20:09:44.741Z,65.00
2018-06-15T20:12:19.066Z,65.30
2018-06-15T20:14:53.940Z,65.70
2018-06-15T20:17:28.497Z,66.10
2018-06-15T20:20:03.408Z,66.40
2018-06-15T20:22:37.679Z,66.80
2018-06-15T20:25:12.410Z,67.10
2018-06-15T20:27:47.149Z,67.30
2018-06-15T20:30:22.018Z,67.40
2018-06-15T20:32:56.428Z,67.90
2018-06-15T20:35:30.939Z,68.20
2018-06-15T20:38:05.545Z,69.10
2018-06-15T20:40:40.488Z,68.80
2018-06-15T20:43:15.163Z,69.40
2018-06-15T20:45:50.233Z,69.20
2018-06-15T20:48:25.392Z,69.80
2018-06-15T20:51:00.574Z,70.10
2018-06-15T20:53:35.349Z,70.30
2018-06-15T20:56:10.147Z,70.40
2018-06-15T20:58:44.686Z,70.70
2018-06-15T21:01:20.477Z,70.90
2018-06-15T21:03:55.454Z,71.20
2018-06-15T21:06:29.814Z,71.40
2018-06-15T21:09:07.735Z,71.50
2018-06-15T21:11:42.324Z,71.70
2018-06-15T21:14:17.044Z,71.90
2018-06-15T21:16:51.857Z,71.50
2018-06-15T21:19:26.443Z,72.40
2018-06-15T21:22:01.373Z,73.10
2018-06-15T21:24:35.882Z,72.90
2018-06-15T21:27:10.940Z,73.00
2018-06-15T21:29:45.257Z,73.20
2018-06-15T21:32:20.050Z,73.30
2018-06-15T21:34:54.979Z,73.50
2018-06-15T21:37:29.462Z,73.60
2018-06-15T21:40:04.025Z,73.80
2018-06-15T21:42:38.698Z,73.90
2018-06-15T21:45:13.482Z,74.10
2018-06-15T21:47:48.159Z,74.40
2018-06-15T21:50:22.425Z,74.30
2018-06-15T21:52:58.024Z,74.60
2018-06-15T21:55:32.946Z,74.60
2018-06-15T21:58:07.999Z,74.50
2018-06-15T22:00:42.542Z,74.80
2018-06-15T22:03:17.201Z,75.70
2018-06-15T22:05:51.825Z,75.00
2018-06-15T22:08:27.100Z,75.40
2018-06-15T22:11:02.205Z,75.40
2018-06-15T22:13:37.083Z,75.80
2018-06-15T22:16:11.499Z,75.90
2018-06-15T22:18:47.045Z,76.00
2018-06-15T22:21:22.006Z,76.10
2018-06-15T22:23:56.745Z,76.00
2018-06-15T22:26:31.494Z,76.10
2018-06-15T22:29:06.411Z,76.40
2018-06-15T22:31:41.039Z,76.60
2018-06-15T22:34:15.703Z,76.70
2018-06-15T22:36:50.444Z,76.80
2018-06-15T22:39:25.382Z,76.90
2018-06-15T22:41:59.828Z,77.80
2018-06-15T22:44:35.019Z,77.20
2018-06-15T22:47:09.370Z,77.20
2018-06-15T22:49:43.933Z,77.30
2018-06-15T22:52:18.543Z,77.40
2018-06-15T22:54:53.147Z,77.40
2018-06-15T22:57:27.801Z,77.50
2018-06-15T23:00:02.803Z,77.50
2018-06-15T23:02:37.367Z,77.90
2018-06-15T23:05:12.157Z,77.80
2018-06-15T23:07:46.743Z,77.90
2018-06-15T23:10:21.614Z,78.00
2018-06-15T23:12:56.073Z,78.00
2018-06-15T23:15:30.862Z,78.00
2018-06-15T23:18:05.399Z,78.10
2018-06-15T23:20:40.068Z,78.10
2018-06-15T23:23:15.357Z,78.50
2018-06-15T23:25:49.580Z,78.30
2018-06-15T23:28:24.549Z,78.50
2018-06-15T23:30:59.692Z,78.50
2018-06-15T23:33:34.732Z,78.50
2018-06-15T23:36:09.430Z,78.40
2018-06-15T23:38:44.166Z,78.50
2018-06-15T23:41:18.817Z,78.30
2018-06-15T23:43:53.828Z,78.30
2018-06-15T23:46:28.123Z,78.30
2018-06-15T23:49:02.788Z,78.30
2018-06-15T23:51:37.897Z,78.40
2018-06-15T23:54:12.082Z,78.70
2018-06-15T23:56:46.984Z,78.70
2018-06-15T23:59:21.789Z,78.70
